Time;durP1;ratioP1;P1;durP2;ratioP2;P2;SDS_P1;SDS_P2;PMS_P1;PMS_P2;Temp;Humidity;BMP_temperature;BMP_pressure;BME280_temperature;BME280_humidity;BME280_pressure;Samples;Min_cycle;Max_cycle;Signal;HPM_P1;HPM_P2
2021/12/31 00:01:31;;;;;;;;;11.75;11.75;;;;;12.73;78.77;101533.03;5038462;28;46514;-52
2021/12/31 00:03:57;;;;;;;;;13.00;11.00;;;;;12.70;78.41;101528.81;5037475;28;45297;-53
2021/12/31 00:06:22;;;;;;;;;7.50;7.50;;;;;12.67;78.94;101529.22;5038095;28;45400;-57
2021/12/31 00:08:48;;;;;;;;;11.25;11.00;;;;;12.69;78.62;101526.25;5038434;28;45387;-54
2021/12/31 00:11:13;;;;;;;;;13.75;11.00;;;;;12.68;78.81;101525.41;5038314;28;45936;-53
2021/12/31 00:13:39;;;;;;;;;12.25;10.25;;;;;12.64;78.27;101521.38;5037928;28;45562;-55
2021/12/31 00:16:04;;;;;;;;;11.25;10.75;;;;;12.68;78.49;101533.69;5020302;28;45362;-53
2021/12/31 00:18:30;;;;;;;;;13.00;11.50;;;;;12.68;78.58;101519.03;5038322;28;45304;-55
2021/12/31 00:20:56;;;;;;;;;10.75;10.75;;;;;12.69;78.41;101520.75;5038337;28;46245;-54
2021/12/31 00:23:25;;;;;;;;;15.00;12.50;;;;;12.68;78.49;101519.03;5037673;28;45385;-52
2021/12/31 00:25:51;;;;;;;;;11.80;10.40;;;;;12.61;78.30;101500.59;5037930;28;45479;-52
2021/12/31 00:28:16;;;;;;;;;10.00;10.00;;;;;12.68;78.42;101503.38;5037877;28;45314;-51
2021/12/31 00:30:42;;;;;;;;;13.25;11.00;;;;;12.69;78.74;101509.72;5037696;28;45507;-54
2021/12/31 00:33:08;;;;;;;;;12.25;10.75;;;;;12.70;78.11;101506.75;5038094;28;45693;-54
2021/12/31 00:35:34;;;;;;;;;10.80;10.40;;;;;12.67;78.28;101507.19;5039970;28;45368;-51
2021/12/31 00:38:00;;;;;;;;;11.40;10.20;;;;;12.70;78.16;101503.19;5039509;28;45672;-53
2021/12/31 00:40:26;;;;;;;;;14.50;11.00;;;;;12.57;78.13;101488.31;5020464;28;46010;-55
2021/12/31 00:42:52;;;;;;;;;12.75;12.75;;;;;12.66;78.09;101504.63;5020333;28;45338;-57
2021/12/31 00:45:18;;;;;;;;;12.50;9.75;;;;;12.59;77.96;101510.97;5037812;28;45772;-54
2021/12/31 00:47:44;;;;;;;;;11.40;11.20;;;;;12.43;78.47;101483.81;5038110;28;45361;-51
2021/12/31 00:50:10;;;;;;;;;13.25;11.25;;;;;12.53;77.76;101502.72;5019759;28;46813;-55
2021/12/31 00:52:36;;;;;;;;;11.80;11.80;;;;;12.54;78.13;101518.16;5019302;28;45452;-52
2021/12/31 00:55:03;;;;;;;;;16.75;12.75;;;;;12.51;78.33;101510.31;5037614;28;45463;-52
2021/12/31 00:57:28;;;;;;;;;13.20;11.80;;;;;12.49;78.14;101510.50;5037571;28;45586;-51
2021/12/31 00:59:54;;;;;;;;;11.50;10.00;;;;;12.46;78.21;101510.94;5037787;28;46354;-56
2021/12/31 01:02:22;;;;;;;;;15.50;13.00;;;;;12.43;78.58;101503.94;5356552;22;46514;-54
2021/12/31 01:04:47;;;;;;;;;17.40;14.40;;;;;12.44;78.42;101505.63;4999978;28;45366;-56
2021/12/31 01:07:13;;;;;;;;;14.25;13.25;;;;;12.44;78.41;101499.28;5018580;28;45820;-53
2021/12/31 01:09:39;;;;;;;;;14.50;13.25;;;;;12.43;78.20;101489.31;5036665;28;45429;-55
2021/12/31 01:12:07;;;;;;;;;11.25;11.25;;;;;12.37;78.53;101479.97;5037293;28;45430;-52
2021/12/31 01:14:39;;;;;;;;;15.40;14.20;;;;;12.34;78.48;101477.66;5037364;28;45441;-52
2021/12/31 01:17:09;;;;;;;;;18.40;17.20;;;;;12.32;78.16;101477.84;5037069;28;45403;-55
2021/12/31 01:19:45;;;;;;;;;17.20;15.40;;;;;12.24;78.39;101471.66;5037298;28;45456;-57
2021/12/31 01:22:14;;;;;;;;;17.00;15.60;;;;;12.26;78.36;101477.81;5020707;28;45347;-50
2021/12/31 01:24:40;;;;;;;;;18.00;15.60;;;;;12.02;78.56;101436.81;5036545;28;45384;-50
2021/12/31 01:27:05;;;;;;;;;21.75;17.50;;;;;12.23;78.44;101473.59;5037014;28;45386;-52
2021/12/31 01:29:31;;;;;;;;;16.00;14.75;;;;;12.27;78.32;101477.59;5036469;28;45333;-50
2021/12/31 01:31:56;;;;;;;;;11.75;11.25;;;;;12.27;77.90;101474.03;5037083;28;45400;-55
2021/12/31 01:34:24;;;;;;;;;9.50;9.50;;;;;12.11;78.11;101454.03;5036813;28;45342;-51
2021/12/31 01:36:50;;;;;;;;;13.60;13.40;;;;;12.21;78.12;101467.41;5019240;28;45544;-52
2021/12/31 01:39:15;;;;;;;;;11.80;11.80;;;;;12.19;78.02;101481.41;5022857;28;45477;-60
2021/12/31 01:41:41;;;;;;;;;16.00;13.25;;;;;12.18;78.05;101478.84;5036467;28;45376;-52
2021/12/31 01:44:07;;;;;;;;;12.00;12.00;;;;;12.16;77.85;101481.78;5036400;28;45412;-51
2021/12/31 01:46:35;;;;;;;;;15.80;12.00;;;;;12.03;77.49;101463.34;5037064;28;45402;-51
2021/12/31 01:49:03;;;;;;;;;13.20;11.20;;;;;12.18;78.04;101490.69;5018065;28;45752;-53
2021/12/31 01:51:29;;;;;;;;;16.60;12.40;;;;;12.16;77.41;101500.19;5036355;28;45354;-53
2021/12/31 01:53:54;;;;;;;;;17.60;13.60;;;;;12.12;77.77;101509.94;5002273;28;45472;-53
2021/12/31 01:56:20;;;;;;;;;17.25;16.50;;;;;12.13;77.58;101511.63;5036522;28;45271;-49
2021/12/31 01:58:54;;;;;;;;;17.00;15.75;;;;;12.02;77.66;101499.25;5002421;28;45502;-49
2021/12/31 02:01:21;;;;;;;;;18.00;16.00;;;;;12.03;77.63;101489.94;4998649;28;45352;-53
2021/12/31 02:03:46;;;;;;;;;18.20;17.40;;;;;12.15;77.69;101509.50;4981504;28;45462;-51
2021/12/31 02:06:12;;;;;;;;;22.50;21.25;;;;;11.95;77.75;101477.19;4976492;28;45517;-54
2021/12/31 02:08:37;;;;;;;;;21.50;19.00;;;;;12.19;77.42;101505.31;4976840;28;45942;-59
2021/12/31 02:11:03;;;;;;;;;23.25;23.25;;;;;12.17;77.17;101501.91;4975309;28;45446;-55
2021/12/31 02:13:28;;;;;;;;;23.50;23.25;;;;;12.05;76.91;101480.47;4977081;28;45556;-52
2021/12/31 02:15:54;;;;;;;;;28.00;26.75;;;;;11.95;77.03;101459.88;4975665;28;45614;-54
2021/12/31 02:18:19;;;;;;;;;28.75;25.50;;;;;12.12;77.33;101488.75;4976035;28;45485;-53
2021/12/31 02:20:47;;;;;;;;;34.00;30.75;;;;;12.11;77.16;101492.56;4977035;28;45482;-54
2021/12/31 02:23:17;;;;;;;;;26.80;24.80;;;;;12.04;77.02;101477.91;4975982;28;45317;-52
2021/12/31 02:25:42;;;;;;;;;32.60;27.00;;;;;12.09;76.74;101483.66;4975386;28;45423;-51
2021/12/31 02:28:08;;;;;;;;;31.00;27.75;;;;;12.05;77.30;101482.38;4975045;28;45418;-56
2021/12/31 02:30:33;;;;;;;;;29.75;26.50;;;;;12.04;77.18;101478.78;4975853;28;45516;-53
2021/12/31 02:32:59;;;;;;;;;37.75;32.25;;;;;11.91;76.97;101457.50;4977078;28;45482;-51
2021/12/31 02:35:25;;;;;;;;;31.00;27.00;;;;;12.04;76.79;101467.78;4975851;28;45739;-56
2021/12/31 02:37:50;;;;;;;;;24.50;24.50;;;;;12.01;77.09;101468.13;4974663;28;47710;-53
2021/12/31 02:40:16;;;;;;;;;27.50;23.25;;;;;11.97;77.00;101464.13;4976163;28;45390;-50
2021/12/31 02:42:42;;;;;;;;;25.00;20.60;;;;;11.99;76.47;101467.50;4976827;28;45316;-53
2021/12/31 02:45:08;;;;;;;;;23.75;22.50;;;;;11.97;76.78;101464.13;4976667;28;45524;-57
2021/12/31 02:47:34;;;;;;;;;18.60;17.60;;;;;11.93;76.50;101460.06;4975826;28;45644;-50
2021/12/31 02:50:03;;;;;;;;;15.25;15.25;;;;;11.89;76.61;101461.50;4975478;28;45419;-50
2021/12/31 02:52:29;;;;;;;;;16.40;15.40;;;;;11.92;76.52;101461.94;4976165;28;45407;-48
2021/12/31 02:54:55;;;;;;;;;11.50;10.75;;;;;11.73;76.64;101425.03;4974722;28;45397;-52
2021/12/31 02:57:21;;;;;;;;;17.60;13.40;;;;;11.81;76.17;101432.28;4958835;28;45721;-55
2021/12/31 02:59:47;;;;;;;;;14.20;12.20;;;;;11.88;76.39;101446.06;4955611;28;45376;-51
2021/12/31 03:02:12;;;;;;;;;9.50;9.50;;;;;11.62;76.01;101415.47;4928887;28;45365;-52
2021/12/31 03:04:39;;;;;;;;;9.25;9.00;;;;;11.84;75.95;101451.13;4969514;28;45633;-55
2021/12/31 03:07:05;;;;;;;;;11.40;10.80;;;;;11.82;76.16;101444.13;4995713;28;45937;-53
2021/12/31 03:09:31;;;;;;;;;12.00;9.20;;;;;11.86;75.89;101445.44;4995438;28;45220;-51
2021/12/31 03:11:57;;;;;;;;;9.00;9.00;;;;;11.83;75.69;101440.31;4996519;28;45334;-50
2021/12/31 03:14:22;;;;;;;;;7.60;6.40;;;;;11.75;75.71;101442.19;4984176;28;44945;-59
2021/12/31 03:16:48;;;;;;;;;7.75;7.50;;;;;11.74;76.22;101447.91;4962837;28;46943;-55
2021/12/31 03:19:14;;;;;;;;;9.00;9.00;;;;;11.63;75.65;101433.66;4961556;28;45433;-52
2021/12/31 03:21:39;;;;;;;;;5.50;5.00;;;;;11.45;76.20;101419.56;4994478;28;45363;-49
2021/12/31 03:24:05;;;;;;;;;10.00;8.00;;;;;11.75;75.94;101466.94;4995767;28;45437;-53
2021/12/31 03:26:31;;;;;;;;;6.00;6.00;;;;;11.64;75.76;101448.28;4995477;28;46148;-53
2021/12/31 03:28:56;;;;;;;;;6.00;6.00;;;;;11.76;75.68;101479.66;4994797;28;45401;-52
2021/12/31 03:31:22;;;;;;;;;4.75;4.25;;;;;11.79;75.75;101498.50;4978287;28;45284;-58
2021/12/31 03:33:47;;;;;;;;;8.75;7.00;;;;;11.81;75.83;101503.78;4995935;28;45300;-52
2021/12/31 03:36:13;;;;;;;;;7.25;5.00;;;;;11.86;75.94;101516.94;4995345;28;46443;-52
2021/12/31 03:38:38;;;;;;;;;8.00;5.50;;;;;11.86;75.11;101525.19;4977942;28;45918;-56
2021/12/31 03:41:04;;;;;;;;;8.25;5.50;;;;;11.85;75.30;101524.31;4995632;28;45307;-52
2021/12/31 03:43:29;;;;;;;;;7.00;4.50;;;;;11.76;75.00;101489.78;4994186;28;45289;-51
2021/12/31 03:45:55;;;;;;;;;12.25;9.00;;;;;11.84;74.62;101495.13;4993794;28;47246;-57
2021/12/31 03:48:21;;;;;;;;;8.25;8.25;;;;;11.84;75.27;101483.28;4994128;28;45386;-51
2021/12/31 03:50:47;;;;;;;;;10.80;9.00;;;;;11.82;74.61;101468.88;4995464;28;45425;-49
2021/12/31 03:53:14;;;;;;;;;7.50;7.50;;;;;11.79;74.62;101454.50;4995225;28;45461;-55
2021/12/31 03:55:40;;;;;;;;;8.00;8.00;;;;;11.76;74.61;101457.66;4977743;28;46243;-58
2021/12/31 03:58:05;;;;;;;;;9.75;8.75;;;;;11.68;74.37;101463.28;4965829;28;45298;-53
2021/12/31 04:00:31;;;;;;;;;8.75;6.00;;;;;11.64;74.73;101467.50;5016572;28;45355;-51
2021/12/31 04:02:57;;;;;;;;;10.00;10.00;;;;;11.61;75.55;101446.78;5033246;28;45480;-55
2021/12/31 04:05:25;;;;;;;;;8.50;6.00;;;;;11.69;75.42;101444.91;4999972;28;45610;-55
2021/12/31 04:07:51;;;;;;;;;10.60;7.00;;;;;11.72;75.11;101437.09;5034310;28;45331;-55
2021/12/31 04:10:17;;;;;;;;;6.60;6.60;;;;;11.71;74.72;101440.91;5016803;28;45375;-54
2021/12/31 04:12:43;;;;;;;;;6.20;5.20;;;;;11.66;74.66;101440.66;5035275;28;45374;-52
2021/12/31 04:15:09;;;;;;;;;3.00;3.00;;;;;11.62;74.42;101429.22;5034186;28;46107;-58
2021/12/31 04:17:34;;;;;;;;;7.75;7.75;;;;;11.64;74.71;101429.03;5034466;28;45475;-53
2021/12/31 04:20:00;;;;;;;;;8.75;6.00;;;;;11.65;74.74;101433.47;5034878;28;45282;-51
2021/12/31 04:22:28;;;;;;;;;6.00;6.00;;;;;11.63;74.54;101443.81;5034822;28;45352;-54
2021/12/31 04:24:53;;;;;;;;;8.40;8.40;;;;;11.47;74.58;101418.31;5034395;28;45371;-57
2021/12/31 04:27:20;;;;;;;;;8.75;7.00;;;;;11.64;75.00;101437.28;5034453;28;45339;-52
2021/12/31 04:29:51;;;;;;;;;6.60;6.60;;;;;11.44;74.55;101409.63;5034706;28;45443;-48
2021/12/31 04:32:20;;;;;;;;;6.00;6.00;;;;;11.53;74.94;101428.53;5017760;28;45515;-52
2021/12/31 04:34:45;;;;;;;;;8.00;8.00;;;;;11.46;74.46;101415.78;5034225;28;45693;-50
2021/12/31 04:37:11;;;;;;;;;8.50;6.50;;;;;11.51;74.56;101438.88;4999929;28;45387;-52
2021/12/31 04:39:36;;;;;;;;;8.00;7.00;;;;;11.49;75.06;101424.47;5034604;28;45265;-50
2021/12/31 04:42:03;;;;;;;;;6.75;6.75;;;;;11.51;75.27;101416.88;5037503;28;45513;-49
2021/12/31 04:44:28;;;;;;;;;7.60;7.60;;;;;11.47;74.42;101418.31;5037568;28;45964;-53
2021/12/31 04:46:54;;;;;;;;;6.00;6.00;;;;;11.43;75.09;101408.81;5037906;28;45454;-53
2021/12/31 04:49:19;;;;;;;;;6.50;4.00;;;;;11.45;74.62;101409.44;5023541;28;45351;-52
2021/12/31 04:51:45;;;;;;;;;7.00;7.00;;;;;11.42;75.01;101412.56;5040154;28;45287;-55
2021/12/31 04:54:15;;;;;;;;;6.00;6.00;;;;;11.47;75.22;101423.81;5037574;28;45833;-55
2021/12/31 04:56:42;;;;;;;;;8.60;7.00;;;;;11.51;74.40;101430.63;5037855;28;45386;-54
2021/12/31 04:59:09;;;;;;;;;5.40;5.40;;;;;11.52;74.77;101432.31;5027660;28;45488;-57
2021/12/31 05:01:34;;;;;;;;;5.00;3.60;;;;;11.42;74.78;101414.50;4999970;28;45548;-54
2021/12/31 05:04:00;;;;;;;;;6.00;6.00;;;;;11.34;74.87;101397.13;5017052;28;45481;-53
2021/12/31 05:06:25;;;;;;;;;5.00;5.00;;;;;11.53;74.77;101431.28;5017170;28;45425;-53
2021/12/31 05:08:51;;;;;;;;;4.50;3.75;;;;;11.45;74.50;101425.94;5017231;28;45382;-55
2021/12/31 05:11:16;;;;;;;;;4.25;4.25;;;;;11.47;74.55;101429.31;4999610;28;45380;-51
2021/12/31 05:13:42;;;;;;;;;7.25;7.00;;;;;11.44;74.97;101428.88;4999445;28;48291;-52
2021/12/31 05:16:07;;;;;;;;;7.25;7.25;;;;;11.47;74.22;101429.31;5017299;28;45262;-57
2021/12/31 05:18:33;;;;;;;;;4.25;4.00;;;;;11.50;74.55;101437.19;5017327;28;45733;-49
2021/12/31 05:20:58;;;;;;;;;7.00;7.00;;;;;11.25;74.04;101398.31;5017147;28;45322;-51
2021/12/31 05:23:24;;;;;;;;;4.50;4.50;;;;;11.35;74.09;101408.94;4999143;28;45651;-54
2021/12/31 05:25:49;;;;;;;;;4.00;4.00;;;;;11.38;74.56;101414.06;4998701;28;45399;-52
2021/12/31 05:28:15;;;;;;;;;6.00;4.50;;;;;11.44;74.77;101415.13;5017158;28;45343;-52
2021/12/31 05:30:40;;;;;;;;;5.25;4.25;;;;;11.46;75.00;101418.53;4999505;28;45549;-55
2021/12/31 05:33:06;;;;;;;;;4.00;4.00;;;;;11.45;74.75;101425.94;5017177;28;45914;-51
2021/12/31 05:35:31;;;;;;;;;6.50;4.75;;;;;11.28;74.56;101383.31;5016999;28;45716;-51
2021/12/31 05:37:57;;;;;;;;;8.25;7.00;;;;;11.42;74.40;101407.09;4999353;28;45292;-55
2021/12/31 05:40:23;;;;;;;;;8.75;8.25;;;;;11.36;75.08;101385.91;5017256;28;45367;-51
2021/12/31 05:42:49;;;;;;;;;8.80;7.20;;;;;11.45;74.55;101395.69;4998299;28;46221;-52
2021/12/31 05:45:14;;;;;;;;;3.00;3.00;;;;;11.46;74.88;101400.16;5017054;28;45350;-54
2021/12/31 05:47:39;;;;;;;;;5.00;4.00;;;;;11.45;74.85;101406.69;5016835;28;45373;-53
2021/12/31 05:50:07;;;;;;;;;8.25;4.75;;;;;11.43;74.59;101403.31;5016971;28;45562;-60
2021/12/31 05:52:33;;;;;;;;;4.80;3.40;;;;;11.44;74.49;101388.50;5015514;28;46401;-52
2021/12/31 05:54:59;;;;;;;;;10.50;7.00;;;;;11.44;74.70;101382.16;4998610;28;45744;-52
2021/12/31 05:57:24;;;;;;;;;3.25;3.25;;;;;11.41;74.61;101374.31;4999074;28;45417;-57
2021/12/31 05:59:50;;;;;;;;;7.75;5.25;;;;;11.30;74.46;101382.06;4992995;28;45682;-55
2021/12/31 06:02:15;;;;;;;;;5.25;5.25;;;;;11.36;74.47;101391.41;5015893;28;45601;-54
2021/12/31 06:04:41;;;;;;;;;3.75;3.75;;;;;11.41;74.57;101399.06;5016286;28;45398;-56
2021/12/31 06:07:06;;;;;;;;;4.25;4.25;;;;;11.21;74.56;101375.88;5016249;28;45299;-55
2021/12/31 06:09:32;;;;;;;;;5.50;5.50;;;;;11.42;74.22;101406.25;5016563;28;45541;-54
2021/12/31 06:11:58;;;;;;;;;6.60;4.80;;;;;11.21;74.45;101372.28;4998339;28;45458;-53
2021/12/31 06:14:24;;;;;;;;;5.50;5.00;;;;;11.35;74.22;101411.69;4998617;28;45478;-53
2021/12/31 06:16:50;;;;;;;;;5.00;5.00;;;;;11.30;74.50;101420.53;5015652;28;45504;-49
2021/12/31 06:19:15;;;;;;;;;4.00;3.75;;;;;11.35;74.42;101428.19;4998633;28;45327;-50
2021/12/31 06:21:41;;;;;;;;;7.25;5.00;;;;;11.36;74.65;101438.97;5016058;28;47184;-57
2021/12/31 06:24:07;;;;;;;;;5.60;4.80;;;;;11.40;74.09;101428.44;5015857;28;45430;-52
2021/12/31 06:26:33;;;;;;;;;7.00;7.00;;;;;11.40;74.65;101425.69;5001212;28;45375;-52
2021/12/31 06:28:58;;;;;;;;;8.00;7.00;;;;;11.44;73.99;101426.13;5016210;28;45220;-56
2021/12/31 06:31:25;;;;;;;;;8.20;6.20;;;;;11.43;73.89;101417.06;5015842;28;47510;-54
2021/12/31 06:33:51;;;;;;;;;8.00;7.00;;;;;11.42;73.78;101417.25;5015720;28;45303;-51
2021/12/31 06:36:17;;;;;;;;;5.00;5.00;;;;;11.23;74.38;101394.91;5015942;28;45269;-54
2021/12/31 06:38:43;;;;;;;;;7.25;5.50;;;;;11.41;74.17;101429.28;4998593;28;45510;-56
2021/12/31 06:41:09;;;;;;;;;6.80;6.80;;;;;11.44;74.28;101426.13;5015304;28;45864;-51
2021/12/31 06:43:34;;;;;;;;;7.60;6.00;;;;;11.46;74.43;101407.53;5015670;28;45364;-51
2021/12/31 06:46:00;;;;;;;;;9.50;8.00;;;;;11.42;73.67;101411.75;4997370;28;45729;-50
2021/12/31 06:48:25;;;;;;;;;7.50;7.50;;;;;11.32;74.05;101418.44;5015954;28;45543;-55
2021/12/31 06:50:51;;;;;;;;;7.75;7.25;;;;;11.31;74.22;101416.75;5015280;28;45370;-51
2021/12/31 06:53:16;;;;;;;;;9.00;7.00;;;;;11.33;74.35;101435.78;5015603;28;45493;-54
2021/12/31 06:55:42;;;;;;;;;5.50;5.50;;;;;11.19;74.24;101427.44;5016115;28;45386;-57
2021/12/31 06:58:07;;;;;;;;;7.25;7.25;;;;;11.37;73.93;101446.16;4998040;28;45436;-49
2021/12/31 07:00:34;;;;;;;;;11.25;8.75;;;;;11.19;74.14;101401.84;5032977;28;46424;-52
2021/12/31 07:03:08;;;;;;;;;5.80;5.80;;;;;11.09;74.13;101367.34;5035141;28;45452;-58
2021/12/31 07:05:33;;;;;;;;;6.80;6.00;;;;;11.24;74.07;101399.34;5016554;28;45411;-49
2021/12/31 07:07:59;;;;;;;;;9.75;7.00;;;;;11.19;74.51;101426.56;5035567;28;45636;-59
2021/12/31 07:10:24;;;;;;;;;6.75;4.00;;;;;11.17;74.84;101426.81;5035540;28;45276;-54
2021/12/31 07:12:55;;;;;;;;;9.50;7.00;;;;;11.28;74.50;101435.53;5035131;28;45323;-54
2021/12/31 07:15:21;;;;;;;;;7.40;7.00;;;;;11.28;73.82;101449.28;5035781;28;45397;-53
2021/12/31 07:17:47;;;;;;;;;10.25;8.00;;;;;11.24;74.50;101430.44;5035554;28;46183;-55
2021/12/31 07:20:12;;;;;;;;;7.80;7.20;;;;;11.26;74.87;101430.22;5017054;28;47243;-56
2021/12/31 07:22:38;;;;;;;;;8.50;7.75;;;;;11.19;74.08;101437.56;5017459;28;45970;-55
2021/12/31 07:25:04;;;;;;;;;5.25;4.50;;;;;11.25;74.35;101445.00;5034878;28;45451;-55
2021/12/31 07:27:32;;;;;;;;;6.60;4.60;;;;;11.25;74.03;101445.88;5035124;28;45228;-56
2021/12/31 07:29:57;;;;;;;;;8.60;8.60;;;;;11.25;74.19;101447.75;5035135;28;46477;-57
2021/12/31 07:32:23;;;;;;;;;6.00;5.50;;;;;11.28;74.26;101443.78;5035151;28;45385;-53
2021/12/31 07:34:48;;;;;;;;;8.75;8.25;;;;;11.28;74.53;101452.88;5017252;28;45454;-57
2021/12/31 07:37:14;;;;;;;;;8.00;8.00;;;;;11.29;74.00;101459.22;5035133;28;45431;-54
2021/12/31 07:39:46;;;;;;;;;10.00;7.25;;;;;11.28;74.56;101463.00;5035176;28;45544;-50
2021/12/31 07:42:11;;;;;;;;;9.00;7.80;;;;;11.38;74.36;101449.78;5002391;28;45343;-56
2021/12/31 07:44:37;;;;;;;;;8.00;8.00;;;;;11.35;74.01;101440.03;5035345;28;45267;-52
2021/12/31 07:47:03;;;;;;;;;7.00;7.00;;;;;11.36;74.22;101446.38;4978018;28;45648;-53
2021/12/31 07:49:28;;;;;;;;;8.00;7.00;;;;;11.38;74.25;101427.78;4977406;28;47000;-57
2021/12/31 07:51:54;;;;;;;;;7.00;7.00;;;;;11.37;74.64;101442.59;4995182;28;45381;-50
2021/12/31 07:54:19;;;;;;;;;7.25;5.25;;;;;11.38;74.18;101436.88;4993880;28;45445;-51
2021/12/31 07:56:44;;;;;;;;;7.75;7.75;;;;;11.33;74.09;101441.28;4995433;28;45363;-57
2021/12/31 07:59:10;;;;;;;;;9.00;7.75;;;;;11.34;74.03;101446.59;5008860;28;46428;-52
2021/12/31 08:01:35;;;;;;;;;7.00;7.00;;;;;11.28;74.47;101425.41;5018272;28;45381;-54
2021/12/31 08:04:02;;;;;;;;;8.00;7.00;;;;;11.33;74.16;101428.41;5036479;28;45996;-55
2021/12/31 08:06:28;;;;;;;;;9.40;7.80;;;;;11.39;74.01;101443.22;5016807;28;45454;-55
2021/12/31 08:08:53;;;;;;;;;7.50;7.00;;;;;11.42;73.84;101453.81;5034208;28;45398;-53
2021/12/31 08:11:19;;;;;;;;;8.25;7.25;;;;;11.43;73.99;101452.78;5034095;28;45481;-53
2021/12/31 08:13:44;;;;;;;;;9.50;8.75;;;;;11.47;74.28;101458.72;5016332;28;45416;-57
2021/12/31 08:16:10;;;;;;;;;10.50;8.75;;;;;11.47;73.88;101456.81;5017772;28;45560;-52
2021/12/31 08:18:35;;;;;;;;;5.00;3.25;;;;;11.47;73.21;101455.97;5037588;28;45411;-52
2021/12/31 08:21:01;;;;;;;;;9.50;9.00;;;;;11.52;73.37;101476.31;5037572;28;45319;-59
2021/12/31 08:23:26;;;;;;;;;9.50;8.50;;;;;11.50;73.73;101472.06;5037723;28;45275;-53
2021/12/31 08:25:52;;;;;;;;;9.25;7.00;;;;;11.61;73.18;101495.41;5019946;28;45694;-56
2021/12/31 08:28:18;;;;;;;;;9.00;8.00;;;;;11.62;73.34;101511.69;5019244;28;45388;-55
2021/12/31 08:30:43;;;;;;;;;7.00;5.00;;;;;11.52;73.35;101481.81;5037582;28;45388;-56
2021/12/31 08:33:09;;;;;;;;;8.50;7.25;;;;;11.44;73.58;101459.97;5002906;28;45457;-54
2021/12/31 08:35:35;;;;;;;;;7.00;7.00;;;;;11.66;73.64;101476.41;5038127;28;45878;-59
2021/12/31 08:38:00;;;;;;;;;9.25;7.50;;;;;11.55;73.09;101454.97;5037285;28;45601;-56
2021/12/31 08:40:26;;;;;;;;;8.50;7.00;;;;;11.68;73.31;101477.03;5037769;28;45368;-55
2021/12/31 08:42:51;;;;;;;;;8.50;8.50;;;;;11.48;73.19;101455.75;5037504;28;45700;-53
2021/12/31 08:45:18;;;;;;;;;5.25;4.75;;;;;11.71;73.51;101482.16;5037736;28;45413;-59
2021/12/31 08:47:43;;;;;;;;;9.20;9.20;;;;;11.73;73.02;101482.78;5017407;28;45406;-58
2021/12/31 08:50:09;;;;;;;;;10.50;8.50;;;;;11.78;72.67;101498.69;5036886;28;45292;-52
2021/12/31 08:52:35;;;;;;;;;12.00;10.80;;;;;11.79;72.72;101490.25;5019647;28;45332;-57
2021/12/31 08:55:01;;;;;;;;;6.75;6.75;;;;;11.83;72.80;101487.94;5036603;28;45615;-57
2021/12/31 08:57:26;;;;;;;;;9.75;8.50;;;;;11.88;72.59;101495.56;5019334;28;45652;-55
2021/12/31 08:59:52;;;;;;;;;9.75;7.75;;;;;11.90;72.62;101485.25;5010066;28;45349;-59
2021/12/31 09:02:17;;;;;;;;;6.25;5.50;;;;;11.90;72.50;101491.56;5016101;28;45481;-52
2021/12/31 09:04:43;;;;;;;;;8.75;7.00;;;;;11.93;72.61;101491.19;5017533;28;45521;-58
2021/12/31 09:07:08;;;;;;;;;8.25;7.75;;;;;11.94;72.45;101481.00;5016701;28;46073;-61
2021/12/31 09:09:34;;;;;;;;;11.00;9.50;;;;;11.85;72.25;101468.47;5017577;28;45335;-53
2021/12/31 09:12:00;;;;;;;;;14.00;8.75;;;;;11.92;72.73;101494.97;5010771;28;45348;-51
2021/12/31 09:14:25;;;;;;;;;8.00;8.00;;;;;11.94;72.64;101519.53;4968205;28;46000;-60
2021/12/31 09:16:51;;;;;;;;;11.75;10.75;;;;;11.69;72.38;101472.41;5013926;28;46625;-61
2021/12/31 09:19:17;;;;;;;;;8.40;8.20;;;;;12.00;72.59;101517.88;4993667;28;45884;-59
2021/12/31 09:21:42;;;;;;;;;10.25;8.00;;;;;12.00;72.31;101531.63;4995511;28;45455;-58
2021/12/31 09:24:08;;;;;;;;;7.25;7.25;;;;;11.99;72.60;101508.75;5012683;28;45468;-62
2021/12/31 09:26:33;;;;;;;;;9.75;6.50;;;;;11.98;72.35;101493.31;4994251;28;45776;-59
2021/12/31 09:28:59;;;;;;;;;6.50;6.50;;;;;11.96;72.43;101516.56;5011941;28;45478;-58
2021/12/31 09:31:24;;;;;;;;;8.00;8.00;;;;;11.96;72.92;101525.69;5009148;28;45442;-57
2021/12/31 09:33:50;;;;;;;;;9.75;7.25;;;;;12.01;72.93;101531.41;5012624;28;45399;-61
2021/12/31 09:36:15;;;;;;;;;9.50;9.00;;;;;11.79;72.95;101482.00;5012417;28;46251;-56
2021/12/31 09:38:41;;;;;;;;;7.25;7.25;;;;;12.01;72.51;101500.31;5012508;28;45708;-55
2021/12/31 09:41:07;;;;;;;;;8.00;8.00;;;;;12.03;72.70;101504.59;5013867;28;45723;-60
2021/12/31 09:43:33;;;;;;;;;7.50;7.50;;;;;11.86;72.65;101481.19;5003609;28;45335;-59
2021/12/31 09:45:58;;;;;;;;;10.00;8.75;;;;;12.03;72.82;101518.34;4998648;28;46527;-60
2021/12/31 09:48:24;;;;;;;;;10.00;10.00;;;;;12.05;73.06;101526.38;4961750;28;45481;-57
2021/12/31 09:50:53;;;;;;;;;10.50;9.00;;;;;11.95;72.72;101525.88;4991888;28;45503;-58
2021/12/31 09:53:18;;;;;;;;;9.80;9.60;;;;;11.97;72.68;101526.53;5005265;28;45777;-61
2021/12/31 09:55:51;;;;;;;;;7.00;7.00;;;;;12.07;73.24;101547.16;4975182;28;47095;-64
2021/12/31 09:58:18;;;;;;;;;6.40;6.20;;;;;11.92;72.74;101541.72;4957674;28;45620;-56
2021/12/31 10:00:47;;;;;;;;;7.80;7.20;;;;;12.12;72.99;101579.56;4971061;28;45608;-63
2021/12/31 10:03:26;;;;;;;;;7.40;5.00;;;;;12.05;73.16;101565.78;4972459;28;45598;-52
2021/12/31 10:05:53;;;;;;;;;5.80;5.00;;;;;11.75;72.79;101516.44;4978881;28;46940;-62
2021/12/31 10:08:23;;;;;;;;;9.00;7.00;;;;;12.15;72.56;101581.06;5010726;28;45374;-59
2021/12/31 10:11:08;;;;;;;;;8.80;7.80;;;;;12.18;72.81;101575.16;4975239;28;45702;-57
2021/12/31 10:13:35;;;;;;;;;6.80;6.80;;;;;12.21;72.35;101580.25;4999070;28;45501;-58
2021/12/31 10:16:01;;;;;;;;;9.60;7.80;;;;;12.24;72.76;101579.00;5008278;28;45412;-58
2021/12/31 10:18:34;;;;;;;;;11.00;10.00;;;;;12.25;72.63;101581.56;5012867;28;45573;-57
2021/12/31 10:21:00;;;;;;;;;6.80;6.80;;;;;12.22;72.72;101570.94;5009251;28;45811;-56
2021/12/31 10:23:26;;;;;;;;;9.80;9.00;;;;;12.27;72.68;101589.63;5011488;28;45573;-60
2021/12/31 10:25:55;;;;;;;;;9.50;9.00;;;;;12.29;72.81;101599.38;5010270;28;46006;-57
2021/12/31 10:28:20;;;;;;;;;8.20;8.20;;;;;12.30;72.97;101603.81;4977075;28;45398;-55
2021/12/31 10:30:46;;;;;;;;;9.50;8.75;;;;;12.38;72.12;101600.03;5006519;28;45399;-52
2021/12/31 10:33:12;;;;;;;;;13.00;10.00;;;;;12.22;72.36;101581.94;4986949;28;45380;-55
2021/12/31 10:35:44;;;;;;;;;6.60;6.60;;;;;12.38;72.95;101599.22;4992674;28;45419;-54
2021/12/31 10:38:12;;;;;;;;;9.20;9.20;;;;;12.38;72.59;101612.97;4993171;28;45521;-56
2021/12/31 10:40:43;;;;;;;;;10.00;9.00;;;;;12.07;72.48;101554.56;4994382;28;45753;-55
2021/12/31 10:43:21;;;;;;;;;10.20;5.40;;;;;12.32;72.54;101611.84;4994355;28;45429;-57
2021/12/31 10:46:08;;;;;;;;;7.00;6.80;;;;;12.32;72.45;101626.47;4991987;28;45862;-61
2021/12/31 10:48:47;;;;;;;;;8.00;5.00;;;;;12.51;72.84;101662.59;4974604;28;46020;-55
2021/12/31 10:51:14;;;;;;;;;6.60;5.00;;;;;12.53;72.70;101663.25;5011960;28;45721;-53
2021/12/31 10:53:41;;;;;;;;;9.60;5.60;;;;;12.35;71.99;101616.97;4994579;28;45403;-52
2021/12/31 10:56:10;;;;;;;;;5.60;5.60;;;;;12.66;72.42;101650.59;5004817;28;45798;-55
2021/12/31 10:58:42;;;;;;;;;7.40;4.40;;;;;12.58;72.39;101641.47;4973835;28;45585;-55
2021/12/31 11:01:12;;;;;;;;;4.00;4.00;;;;;12.67;72.12;101660.56;5018094;28;45846;-56
2021/12/31 11:03:38;;;;;;;;;5.80;5.00;;;;;12.66;72.57;101656.97;5031389;28;45432;-55
2021/12/31 11:06:04;;;;;;;;;7.75;6.25;;;;;12.52;72.59;101616.63;5013154;28;46264;-55
2021/12/31 11:08:29;;;;;;;;;4.00;4.00;;;;;12.71;72.06;101651.69;5003168;28;45517;-56
2021/12/31 11:10:56;;;;;;;;;10.00;6.25;;;;;12.73;72.59;101665.25;4993909;28;45415;-55
2021/12/31 11:13:22;;;;;;;;;5.00;5.00;;;;;12.75;72.33;101660.38;4994598;28;45799;-54
2021/12/31 11:15:50;;;;;;;;;5.50;5.25;;;;;12.49;72.26;101617.88;4978034;28;45586;-54